createdAt,value
2023-04-28T00:02:24.784Z,27.33
2023-04-28T00:04:52.588Z,30.67
2023-04-28T00:07:20.308Z,28.02
2023-04-28T00:09:47.725Z,25.70
2023-04-28T00:12:15.181Z,26.75
2023-04-28T00:14:43.651Z,22.77
2023-04-28T00:17:13.213Z,26.52
2023-04-28T00:19:40.639Z,29.30
2023-04-28T00:22:08.139Z,25.05
2023-04-28T00:24:36.806Z,27.85
2023-04-28T00:27:04.391Z,26.05
2023-04-28T00:29:37.653Z,27.23
2023-04-28T00:32:11.397Z,28.80
2023-04-28T00:34:38.886Z,27.52
2023-04-28T00:37:06.341Z,34.00
2023-04-28T00:39:33.614Z,32.42
2023-04-28T00:42:02.410Z,26.20
2023-04-28T00:44:31.713Z,26.38
2023-04-28T00:46:59.979Z,25.83
2023-04-28T00:49:27.730Z,27.88
2023-04-28T00:51:56.174Z,26.67
2023-04-28T00:54:23.808Z,29.80
2023-04-28T00:56:51.268Z,28.40
2023-04-28T00:59:18.413Z,78.65
2023-04-28T01:01:47.327Z,48.10
2023-04-28T01:04:16.650Z,34.03
2023-04-28T01:06:45.127Z,31.60
2023-04-28T01:09:12.238Z,31.33
2023-04-28T01:11:39.792Z,31.85
2023-04-28T01:14:07.212Z,29.92
2023-04-28T01:16:35.581Z,31.70
2023-04-28T01:19:03.258Z,30.70
2023-04-28T01:21:33.951Z,28.15
2023-04-28T01:24:01.786Z,32.13
2023-04-28T01:26:29.174Z,33.10
2023-04-28T01:28:57.541Z,31.77
2023-04-28T01:31:25.772Z,34.53
2023-04-28T01:33:53.122Z,37.97
2023-04-28T01:36:22.925Z,33.58
2023-04-28T01:38:51.927Z,33.70
2023-04-28T01:41:19.425Z,38.50
2023-04-28T01:43:46.971Z,34.83
2023-04-28T01:46:14.387Z,34.50
2023-04-28T01:48:41.802Z,41.95
2023-04-28T01:51:09.320Z,39.33
2023-04-28T01:53:37.828Z,35.95
2023-04-28T01:56:05.459Z,41.50
2023-04-28T01:58:34.718Z,36.47
2023-04-28T02:01:03.253Z,34.75
2023-04-28T02:03:30.445Z,36.90
2023-04-28T02:05:58.415Z,40.53
2023-04-28T02:08:27.632Z,41.38
2023-04-28T02:10:57.522Z,39.28
2023-04-28T02:13:25.284Z,37.75
2023-04-28T02:15:52.649Z,38.50
2023-04-28T02:18:26.426Z,36.75
2023-04-28T02:20:53.654Z,38.58
2023-04-28T02:23:21.110Z,37.03
2023-04-28T02:25:48.538Z,39.75
2023-04-28T02:28:17.037Z,41.13
2023-04-28T02:30:44.510Z,40.38
2023-04-28T02:33:12.936Z,33.70
2023-04-28T02:35:40.499Z,39.47
2023-04-28T02:38:09.012Z,37.47
2023-04-28T02:40:36.351Z,39.38
2023-04-28T02:43:03.738Z,41.47
2023-04-28T02:45:31.062Z,37.05
2023-04-28T02:47:58.219Z,34.67
2023-04-28T02:50:25.833Z,39.65
2023-04-28T02:52:53.100Z,41.28
2023-04-28T02:55:24.474Z,34.33
2023-04-28T02:57:53.597Z,34.30
2023-04-28T03:00:21.212Z,38.80
2023-04-28T03:02:48.356Z,41.45
2023-04-28T03:05:16.739Z,39.60
2023-04-28T03:07:46.411Z,46.85
2023-04-28T03:10:14.310Z,50.97
2023-04-28T03:12:41.620Z,47.83
2023-04-28T03:15:09.698Z,51.35
2023-04-28T03:17:42.084Z,59.97
2023-04-28T03:20:11.157Z,62.33
2023-04-28T03:22:38.511Z,57.20
2023-04-28T03:25:06.483Z,61.72
2023-04-28T03:27:34.917Z,63.92
2023-04-28T03:30:03.507Z,63.22
2023-04-28T03:32:31.157Z,62.70
2023-04-28T03:34:59.798Z,60.83
2023-04-28T03:37:28.106Z,62.25
2023-04-28T03:39:55.781Z,58.67
2023-04-28T03:42:24.329Z,63.83
2023-04-28T03:44:51.767Z,62.30
2023-04-28T03:47:19.316Z,58.80
2023-04-28T03:49:46.870Z,60.20
2023-04-28T03:52:16.440Z,60.97
2023-04-28T03:54:49.737Z,58.78
2023-04-28T03:57:17.273Z,57.25
2023-04-28T03:59:44.768Z,62.10
2023-04-28T04:02:12.124Z,58.53
2023-04-28T04:04:39.874Z,62.83
2023-04-28T04:07:07.084Z,59.17
2023-04-28T04:09:35.605Z,61.42
2023-04-28T04:12:02.933Z,63.22
2023-04-28T04:14:30.458Z,65.13
2023-04-28T04:16:58.011Z,63.40
2023-04-28T04:19:28.368Z,61.38
2023-04-28T04:21:56.144Z,62.05
2023-04-28T04:24:23.688Z,60.53
2023-04-28T04:26:51.821Z,64.13
2023-04-28T04:29:19.360Z,63.15
2023-04-28T04:31:46.828Z,62.20
2023-04-28T04:34:14.414Z,62.83
2023-04-28T04:36:42.173Z,66.88
2023-04-28T04:39:09.908Z,69.20
2023-04-28T04:41:38.088Z,70.32
2023-04-28T04:44:06.308Z,68.82
2023-04-28T04:46:33.820Z,71.30
2023-04-28T04:49:03.666Z,69.20
2023-04-28T04:51:31.033Z,67.68
2023-04-28T04:53:59.507Z,68.22
2023-04-28T04:56:26.995Z,64.68
2023-04-28T04:58:54.543Z,65.10
2023-04-28T05:01:21.921Z,64.93
2023-04-28T05:03:55.849Z,68.18
2023-04-28T05:06:23.580Z,63.53
2023-04-28T05:08:51.075Z,63.15
2023-04-28T05:11:19.275Z,59.47
2023-04-28T05:13:46.969Z,63.65
2023-04-28T05:16:20.556Z,60.97
2023-04-28T05:18:48.052Z,57.22
2023-04-28T05:21:15.349Z,65.68
2023-04-28T05:23:43.722Z,61.30
2023-04-28T05:26:11.440Z,61.97
2023-04-28T05:28:41.431Z,60.83
2023-04-28T05:31:09.833Z,58.05
2023-04-28T05:33:37.312Z,60.70
2023-04-28T05:36:04.946Z,58.88
2023-04-28T05:38:34.144Z,61.00
2023-04-28T05:41:02.546Z,55.40
2023-04-28T05:43:30.184Z,59.40
2023-04-28T05:45:57.731Z,57.47
2023-04-28T05:48:27.427Z,56.72
2023-04-28T05:50:56.731Z,55.78
2023-04-28T05:53:24.106Z,52.55
2023-04-28T05:55:52.181Z,51.00
2023-04-28T05:58:21.582Z,56.65
2023-04-28T06:00:49.143Z,52.95
2023-04-28T06:03:19.240Z,54.05
2023-04-28T06:05:54.364Z,53.20
2023-04-28T06:08:21.727Z,53.47
2023-04-28T06:10:50.138Z,50.28
2023-04-28T06:13:17.493Z,51.67
2023-04-28T06:15:47.190Z,50.03
2023-04-28T06:18:20.735Z,48.85
2023-04-28T06:20:48.111Z,45.45
2023-04-28T06:23:15.556Z,50.22
2023-04-28T06:25:43.023Z,47.25
2023-04-28T06:28:10.512Z,45.85
2023-04-28T06:30:43.626Z,45.38
2023-04-28T06:33:11.382Z,42.92
2023-04-28T06:35:40.024Z,42.95
2023-04-28T06:38:08.025Z,47.50
2023-04-28T06:40:35.509Z,41.10
2023-04-28T06:43:04.388Z,38.47
2023-04-28T06:45:33.040Z,42.13
2023-04-28T06:48:00.556Z,43.75
2023-04-28T06:50:27.990Z,37.80
2023-04-28T06:52:55.377Z,43.42
2023-04-28T06:55:22.723Z,44.00
2023-04-28T06:57:53.311Z,37.45
2023-04-28T07:00:21.342Z,42.25
2023-04-28T07:02:48.684Z,44.20
2023-04-28T07:05:16.760Z,35.22
2023-04-28T07:07:44.228Z,33.90
2023-04-28T07:10:11.992Z,33.90
2023-04-28T07:12:39.619Z,32.25
2023-04-28T07:15:08.471Z,29.67
2023-04-28T07:17:38.902Z,27.58
2023-04-28T07:20:07.460Z,26.95
2023-04-28T07:22:35.064Z,32.85
2023-04-28T07:25:02.708Z,32.97
2023-04-28T07:27:29.940Z,27.95
2023-04-28T07:29:57.347Z,24.40
2023-04-28T07:32:25.013Z,27.17
2023-04-28T07:34:52.384Z,24.85
2023-04-28T07:37:20.831Z,22.70
2023-04-28T07:39:48.336Z,27.48
2023-04-28T07:42:15.703Z,21.58
2023-04-28T07:44:42.795Z,19.63
2023-04-28T07:47:10.146Z,21.77
2023-04-28T07:49:37.557Z,23.20
2023-04-28T07:52:05.302Z,16.77
2023-04-28T07:54:32.805Z,21.08
2023-04-28T07:57:01.112Z,16.63
2023-04-28T07:59:28.484Z,19.08
2023-04-28T08:01:56.038Z,14.65
2023-04-28T08:04:23.772Z,12.93
2023-04-28T08:06:51.369Z,15.20
2023-04-28T08:09:30.539Z,15.85
2023-04-28T08:11:59.306Z,16.45
2023-04-28T08:14:26.518Z,16.92
2023-04-28T08:16:54.110Z,15.00
2023-04-28T08:19:22.031Z,12.00
2023-04-28T08:21:49.353Z,12.00
2023-04-28T08:24:23.976Z,8.73
2023-04-28T08:26:51.417Z,10.55
2023-04-28T08:29:18.942Z,8.15
2023-04-28T08:31:46.661Z,10.20
2023-04-28T08:34:16.670Z,9.50
2023-04-28T08:36:45.363Z,11.70
2023-04-28T08:39:13.667Z,11.00
2023-04-28T08:41:41.973Z,12.35
2023-04-28T08:44:10.490Z,24.23
2023-04-28T08:46:45.348Z,20.25
2023-04-28T08:49:19.263Z,13.80
2023-04-28T08:51:51.500Z,9.48
2023-04-28T08:54:26.649Z,10.32
2023-04-28T08:56:56.252Z,9.27
2023-04-28T08:59:24.386Z,12.20
2023-04-28T09:01:53.927Z,11.00
2023-04-28T09:04:22.445Z,10.40
2023-04-28T09:06:50.099Z,9.25
2023-04-28T09:09:34.220Z,11.27
2023-04-28T09:12:05.316Z,12.35
2023-04-28T09:14:36.609Z,13.50
2023-04-28T09:17:13.955Z,12.00
2023-04-28T09:19:45.261Z,10.23
2023-04-28T09:24:47.309Z,12.70
2023-04-28T09:27:15.816Z,9.00
2023-04-28T09:29:54.780Z,11.30
2023-04-28T09:32:24.799Z,12.05
2023-04-28T09:34:54.833Z,10.27
2023-04-28T09:37:25.403Z,11.20
2023-04-28T09:39:55.132Z,11.70
2023-04-28T09:42:41.822Z,9.32
2023-04-28T09:45:13.982Z,8.30
2023-04-28T09:47:44.605Z,11.73
2023-04-28T09:50:15.470Z,9.68
2023-04-28T09:52:46.265Z,12.10
2023-04-28T09:55:13.759Z,9.52
2023-04-28T09:57:45.749Z,8.98
2023-04-28T10:00:15.327Z,8.55
2023-04-28T10:02:44.362Z,7.32
2023-04-28T10:05:18.141Z,10.80
2023-04-28T10:07:46.427Z,8.10
2023-04-28T10:10:15.127Z,6.88
2023-04-28T10:12:42.744Z,7.28
2023-04-28T10:15:10.880Z,9.57
2023-04-28T10:17:39.505Z,8.32
2023-04-28T10:20:09.074Z,8.68
2023-04-28T10:22:54.912Z,9.75
2023-04-28T10:25:35.701Z,5.72
2023-04-28T10:28:09.083Z,6.55
2023-04-28T10:30:38.281Z,8.65
2023-04-28T10:33:15.771Z,6.22
2023-04-28T10:35:48.260Z,7.78
2023-04-28T10:38:24.575Z,5.82
2023-04-28T10:40:54.259Z,7.47
2023-04-28T10:43:33.600Z,5.97
2023-04-28T10:46:06.749Z,6.60
2023-04-28T10:48:49.582Z,7.40
2023-04-28T10:51:19.269Z,7.43
2023-04-28T10:53:50.828Z,6.85
2023-04-28T10:56:27.226Z,6.38
2023-04-28T10:58:58.029Z,7.90
2023-04-28T11:01:27.156Z,7.15
2023-04-28T11:04:07.993Z,8.90
2023-04-28T11:06:47.776Z,5.93
2023-04-28T11:09:15.462Z,4.15
2023-04-28T11:11:58.396Z,7.53
2023-04-28T11:14:26.772Z,6.07
2023-04-28T11:17:00.222Z,7.90
2023-04-28T11:19:30.008Z,5.78
2023-04-28T11:21:59.101Z,6.15
2023-04-28T11:24:29.460Z,6.50
2023-04-28T11:26:58.143Z,7.60
2023-04-28T11:29:39.668Z,6.43
2023-04-28T11:32:10.374Z,5.53
2023-04-28T11:34:38.478Z,5.32
2023-04-28T11:37:09.631Z,4.68
2023-04-28T11:39:37.549Z,7.40
2023-04-28T11:42:12.182Z,5.85
2023-04-28T11:44:39.683Z,8.65
2023-04-28T11:47:07.846Z,4.55
2023-04-28T11:49:45.659Z,7.20
2023-04-28T11:52:14.136Z,3.92
2023-04-28T11:54:44.422Z,6.00
2023-04-28T11:57:25.734Z,7.32
2023-04-28T11:59:53.077Z,5.53
2023-04-28T12:02:30.057Z,7.07
2023-04-28T12:05:05.790Z,5.50
2023-04-28T12:07:44.678Z,8.75
2023-04-28T12:10:17.390Z,7.72
2023-04-28T12:12:52.075Z,5.60
2023-04-28T12:15:22.450Z,5.38
2023-04-28T12:17:56.462Z,6.45
2023-04-28T12:20:39.107Z,4.53
2023-04-28T12:23:08.849Z,15.68
2023-04-28T12:25:48.300Z,5.40
2023-04-28T12:28:16.928Z,5.57
2023-04-28T12:30:44.400Z,6.75
2023-04-28T12:33:29.358Z,6.72
2023-04-28T12:35:59.279Z,5.45
2023-04-28T12:38:28.681Z,5.47
2023-04-28T12:40:57.010Z,5.85
2023-04-28T12:43:24.553Z,3.60
2023-04-28T12:45:53.837Z,4.57
2023-04-28T12:48:22.760Z,4.68
2023-04-28T12:50:56.415Z,6.40
2023-04-28T12:53:24.678Z,5.93
2023-04-28T12:55:52.604Z,7.50
2023-04-28T12:58:20.136Z,6.32
2023-04-28T13:00:48.836Z,5.32
2023-04-28T13:03:16.186Z,8.75
2023-04-28T13:05:44.728Z,6.00
2023-04-28T13:08:12.759Z,6.80
2023-04-28T13:10:41.549Z,7.95
2023-04-28T13:13:08.989Z,6.75
2023-04-28T13:15:38.767Z,5.35
2023-04-28T13:18:06.715Z,4.85
2023-04-28T13:20:34.905Z,8.63
2023-04-28T13:23:02.431Z,6.28
2023-04-28T13:25:31.421Z,8.07
2023-04-28T13:27:58.864Z,7.00
2023-04-28T13:30:27.137Z,5.35
2023-04-28T13:32:57.673Z,6.53
2023-04-28T13:35:25.127Z,6.93
2023-04-28T13:37:56.468Z,5.47
2023-04-28T13:40:24.981Z,6.45
2023-04-28T13:42:52.405Z,5.60
2023-04-28T13:45:21.309Z,11.52
2023-04-28T13:47:51.372Z,5.30
2023-04-28T13:50:19.076Z,7.68
2023-04-28T13:52:46.466Z,8.23
2023-04-28T13:55:16.225Z,5.43
2023-04-28T13:57:44.884Z,5.03
2023-04-28T14:00:13.992Z,6.95
2023-04-28T14:02:41.721Z,4.45
2023-04-28T14:05:09.661Z,5.88
2023-04-28T14:07:37.385Z,5.35
2023-04-28T14:10:05.236Z,4.68
2023-04-28T14:12:32.747Z,7.32
2023-04-28T14:15:00.237Z,9.45
2023-04-28T14:17:35.012Z,7.22
2023-04-28T14:20:04.031Z,9.65
2023-04-28T14:22:31.281Z,4.75
2023-04-28T14:25:00.879Z,5.93
2023-04-28T14:27:29.701Z,10.57
2023-04-28T14:29:57.257Z,6.32
2023-04-28T14:32:30.263Z,7.93
2023-04-28T14:34:57.995Z,6.47
2023-04-28T14:37:27.169Z,7.00
2023-04-28T14:39:54.805Z,6.15
2023-04-28T14:42:23.182Z,5.03
2023-04-28T14:44:52.687Z,5.22
2023-04-28T14:47:21.296Z,7.15
2023-04-28T14:49:53.856Z,7.85
2023-04-28T14:52:22.644Z,9.85
2023-04-28T14:54:52.087Z,6.28
2023-04-28T14:57:20.470Z,5.82
2023-04-28T14:59:48.745Z,5.95
2023-04-28T15:02:17.313Z,5.03
2023-04-28T15:04:46.842Z,5.63
2023-04-28T15:07:14.873Z,4.65
2023-04-28T15:09:44.211Z,5.57
2023-04-28T15:12:13.708Z,4.07
2023-04-28T15:14:41.198Z,4.68
2023-04-28T15:17:10.372Z,7.22
2023-04-28T15:19:39.113Z,5.88
2023-04-28T15:22:06.614Z,3.80
2023-04-28T15:24:34.030Z,4.60
2023-04-28T15:27:04.573Z,7.18
2023-04-28T15:29:34.058Z,5.95
2023-04-28T15:32:08.254Z,4.95
2023-04-28T15:34:35.831Z,7.32
2023-04-28T15:37:43.665Z,5.07
2023-04-28T15:40:13.679Z,5.18
2023-04-28T15:42:49.209Z,6.78
2023-04-28T15:45:18.710Z,5.90
2023-04-28T15:47:48.016Z,6.95
2023-04-28T15:50:22.005Z,5.80
2023-04-28T15:52:50.324Z,8.32
2023-04-28T15:55:26.058Z,7.43
2023-04-28T15:57:53.551Z,7.13
2023-04-28T16:00:21.071Z,4.68
2023-04-28T16:02:48.342Z,6.35
2023-04-28T16:05:18.234Z,5.22
2023-04-28T16:07:45.800Z,6.65
2023-04-28T16:10:16.816Z,5.70
2023-04-28T16:12:44.156Z,8.15
2023-04-28T16:15:13.588Z,7.85
2023-04-28T16:17:41.894Z,6.25
2023-04-28T16:20:15.980Z,6.38
2023-04-28T16:22:43.517Z,3.78
2023-04-28T16:25:12.071Z,7.20
2023-04-28T16:27:40.943Z,9.65
2023-04-28T16:30:10.355Z,6.20
2023-04-28T16:32:38.768Z,5.95
2023-04-28T16:35:06.767Z,6.65
2023-04-28T16:37:37.016Z,7.68
2023-04-28T16:40:06.441Z,5.13
2023-04-28T16:42:35.776Z,6.70
2023-04-28T16:45:03.690Z,7.53
2023-04-28T16:47:31.694Z,4.57
2023-04-28T16:49:59.314Z,5.72
2023-04-28T16:52:28.056Z,6.55
2023-04-28T16:54:55.189Z,8.98
2023-04-28T16:57:23.751Z,8.90
2023-04-28T16:59:51.890Z,6.47
2023-04-28T17:02:19.789Z,6.82
2023-04-28T17:04:48.176Z,7.65
2023-04-28T17:07:15.773Z,8.80
2023-04-28T17:09:43.119Z,9.40
2023-04-28T17:12:10.759Z,9.27
2023-04-28T17:14:41.227Z,9.13
2023-04-28T17:17:14.710Z,10.32
2023-04-28T17:19:42.591Z,8.35
2023-04-28T17:22:12.548Z,9.32
2023-04-28T17:24:40.073Z,8.52
2023-04-28T17:27:09.791Z,12.07
2023-04-28T17:29:37.153Z,9.48
2023-04-28T17:32:07.123Z,10.88
2023-04-28T17:34:35.991Z,10.30
2023-04-28T17:37:03.428Z,9.55
2023-04-28T17:39:30.948Z,11.18
2023-04-28T17:41:58.698Z,10.10
2023-04-28T17:44:26.268Z,10.70
2023-04-28T17:46:55.116Z,8.13
2023-04-28T17:49:22.667Z,7.30
2023-04-28T17:51:50.374Z,8.15
2023-04-28T17:54:23.868Z,10.32
2023-04-28T17:56:52.235Z,10.50
2023-04-28T17:59:19.946Z,7.13
2023-04-28T18:01:47.277Z,6.40
2023-04-28T18:04:14.844Z,7.75
2023-04-28T18:06:43.436Z,7.20
2023-04-28T18:09:10.858Z,10.00
2023-04-28T18:11:38.973Z,11.80
2023-04-28T18:14:06.992Z,10.00
2023-04-28T18:16:36.351Z,8.48
2023-04-28T18:19:04.115Z,10.18
2023-04-28T18:21:34.468Z,10.52
2023-04-28T18:24:02.074Z,13.52
2023-04-28T18:26:29.588Z,7.80
2023-04-28T18:28:57.202Z,10.68
2023-04-28T18:31:25.334Z,11.15
2023-04-28T18:33:53.729Z,7.15
2023-04-28T18:36:21.778Z,13.77
2023-04-28T18:38:49.373Z,8.75
2023-04-28T18:41:19.514Z,10.68
2023-04-28T18:43:47.363Z,8.25
2023-04-28T18:46:16.260Z,8.32
2023-04-28T18:48:44.325Z,7.93
2023-04-28T18:51:12.533Z,11.25
2023-04-28T18:53:40.788Z,8.02
2023-04-28T18:56:08.612Z,13.10
2023-04-28T18:58:37.919Z,9.38
2023-04-28T19:01:05.731Z,7.43
2023-04-28T19:03:33.972Z,9.40
2023-04-28T19:06:04.088Z,10.05
2023-04-28T19:08:33.188Z,11.02
2023-04-28T19:11:01.351Z,8.00
2023-04-28T19:13:37.993Z,9.65
2023-04-28T19:16:07.704Z,8.30
2023-04-28T19:18:35.549Z,12.77
2023-04-28T19:21:05.633Z,8.27
2023-04-28T19:23:34.212Z,6.82
2023-04-28T19:26:02.682Z,9.90
2023-04-28T19:28:30.611Z,10.55
2023-04-28T19:30:59.269Z,10.98
2023-04-28T19:33:28.381Z,8.88
2023-04-28T19:36:11.248Z,8.90
2023-04-28T19:38:43.980Z,12.98
2023-04-28T19:41:12.529Z,12.52
2023-04-28T19:43:41.671Z,12.38
2023-04-28T19:46:12.277Z,12.27
2023-04-28T19:48:42.282Z,13.35
2023-04-28T19:51:11.374Z,12.38
2023-04-28T19:53:42.987Z,10.98
2023-04-28T19:56:13.787Z,11.80
2023-04-28T19:58:41.996Z,13.23
2023-04-28T20:01:11.111Z,11.15
2023-04-28T20:03:38.743Z,13.50
2023-04-28T20:06:06.825Z,13.05
2023-04-28T20:08:35.717Z,12.25
2023-04-28T20:11:04.325Z,11.23
2023-04-28T20:13:31.902Z,11.27
2023-04-28T20:16:02.372Z,10.80
2023-04-28T20:18:33.302Z,13.05
2023-04-28T20:21:00.654Z,13.57
2023-04-28T20:23:29.587Z,14.63
2023-04-28T20:25:57.128Z,13.60
2023-04-28T20:28:25.580Z,10.23
2023-04-28T20:30:53.857Z,11.75
2023-04-28T20:33:21.763Z,12.82
2023-04-28T20:35:50.281Z,15.43
2023-04-28T20:38:29.114Z,12.27
2023-04-28T20:40:59.098Z,12.55
2023-04-28T20:43:28.328Z,13.52
2023-04-28T20:45:56.016Z,10.77
2023-04-28T20:48:24.677Z,10.40
2023-04-28T20:50:54.207Z,10.32
2023-04-28T20:53:22.070Z,14.10
2023-04-28T20:55:50.655Z,14.05
2023-04-28T20:58:18.153Z,14.82
2023-04-28T21:00:45.852Z,12.70
2023-04-28T21:03:16.046Z,11.65
2023-04-28T21:05:45.825Z,11.38
2023-04-28T21:08:13.434Z,11.55
2023-04-28T21:10:42.057Z,13.15
2023-04-28T21:13:10.636Z,10.82
2023-04-28T21:15:41.894Z,11.57
2023-04-28T21:18:09.283Z,12.15
2023-04-28T21:20:36.600Z,12.73
2023-04-28T21:23:07.854Z,9.93
2023-04-28T21:25:36.870Z,11.68
2023-04-28T21:28:04.177Z,15.45
2023-04-28T21:30:31.458Z,12.90
2023-04-28T21:32:58.591Z,14.18
2023-04-28T21:35:27.085Z,10.63
2023-04-28T21:37:54.444Z,13.07
2023-04-28T21:40:22.074Z,12.52
2023-04-28T21:42:49.372Z,12.15
2023-04-28T21:45:17.969Z,12.98
2023-04-28T21:47:46.910Z,12.23
2023-04-28T21:50:14.320Z,12.10
2023-04-28T21:52:41.810Z,12.20
2023-04-28T21:55:16.687Z,13.88
2023-04-28T21:57:43.831Z,11.88
2023-04-28T22:00:13.031Z,9.15
2023-04-28T22:02:40.957Z,11.48
2023-04-28T22:05:09.931Z,10.23
2023-04-28T22:07:48.360Z,12.80
2023-04-28T22:10:15.752Z,11.55
2023-04-28T22:12:42.935Z,14.48
2023-04-28T22:15:10.752Z,12.65
2023-04-28T22:17:38.365Z,11.80
2023-04-28T22:20:12.203Z,11.77
2023-04-28T22:22:40.432Z,8.90
2023-04-28T22:25:09.489Z,11.88
2023-04-28T22:27:37.916Z,14.57
2023-04-28T22:30:08.514Z,10.02
2023-04-28T22:32:35.989Z,8.93
2023-04-28T22:35:05.800Z,11.38
2023-04-28T22:37:34.256Z,9.57
2023-04-28T22:40:01.408Z,11.38
2023-04-28T22:42:29.461Z,12.50
2023-04-28T22:44:56.761Z,10.43
2023-04-28T22:47:24.250Z,10.13
2023-04-28T22:49:52.799Z,10.80
2023-04-28T22:52:22.305Z,10.45
2023-04-28T22:54:50.972Z,14.20
2023-04-28T22:57:18.207Z,9.82
2023-04-28T22:59:45.847Z,9.07
2023-04-28T23:02:13.917Z,11.75
2023-04-28T23:04:41.448Z,12.10
2023-04-28T23:07:09.064Z,11.45
2023-04-28T23:09:37.552Z,12.18
2023-04-28T23:12:13.127Z,12.25
2023-04-28T23:14:40.614Z,10.90
2023-04-28T23:17:09.062Z,12.88
2023-04-28T23:19:39.432Z,13.10
2023-04-28T23:22:09.157Z,12.93
2023-04-28T23:24:38.269Z,11.48
2023-04-28T23:27:05.980Z,11.20
2023-04-28T23:29:33.916Z,14.27
2023-04-28T23:32:01.172Z,13.93
2023-04-28T23:34:31.498Z,14.63
2023-04-28T23:36:59.056Z,14.68
2023-04-28T23:39:30.441Z,15.93
2023-04-28T23:41:58.937Z,14.48
2023-04-28T23:44:26.511Z,15.63
2023-04-28T23:46:56.082Z,16.02
2023-04-28T23:49:24.109Z,15.02
2023-04-28T23:51:51.392Z,14.27
2023-04-28T23:54:20.928Z,18.13
2023-04-28T23:56:48.712Z,15.60
2023-04-28T23:59:16.356Z,17.40
